sensor_id;sensor_type;location;lat;lon;timestamp;pressure;altitude;pressure_sealevel;temperature
19666;BMP180;9980;51.020;7.772;2023-07-08T00:00:54;97815.00;;;20.40
19666;BMP180;9980;51.020;7.772;2023-07-08T00:03:21;97819.00;;;20.40
19666;BMP180;9980;51.020;7.772;2023-07-08T00:05:55;97804.00;;;20.30
19666;BMP180;9980;51.020;7.772;2023-07-08T00:08:22;97818.00;;;20.30
19666;BMP180;9980;51.020;7.772;2023-07-08T00:10:49;97819.00;;;20.30
19666;BMP180;9980;51.020;7.772;2023-07-08T00:13:16;97823.00;;;20.20
19666;BMP180;9980;51.020;7.772;2023-07-08T00:15:45;97809.00;;;20.20
19666;BMP180;9980;51.020;7.772;2023-07-08T00:18:16;97811.00;;;20.20
19666;BMP180;9980;51.020;7.772;2023-07-08T00:20:47;97802.00;;;20.10
19666;BMP180;9980;51.020;7.772;2023-07-08T00:23:15;97806.00;;;20.10
19666;BMP180;9980;51.020;7.772;2023-07-08T00:25:43;97820.00;;;20.10
19666;BMP180;9980;51.020;7.772;2023-07-08T00:28:16;97808.00;;;20.00
19666;BMP180;9980;51.020;7.772;2023-07-08T00:30:44;97803.00;;;20.00
19666;BMP180;9980;51.020;7.772;2023-07-08T00:33:11;97804.00;;;20.00
19666;BMP180;9980;51.020;7.772;2023-07-08T00:35:41;97803.00;;;19.90
19666;BMP180;9980;51.020;7.772;2023-07-08T00:38:15;97804.00;;;19.80
19666;BMP180;9980;51.020;7.772;2023-07-08T00:41:08;97810.00;;;19.80
19666;BMP180;9980;51.020;7.772;2023-07-08T00:43:46;97792.00;;;19.80
19666;BMP180;9980;51.020;7.772;2023-07-08T00:46:31;97805.00;;;19.70
19666;BMP180;9980;51.020;7.772;2023-07-08T00:51:49;97804.00;;;19.60
19666;BMP180;9980;51.020;7.772;2023-07-08T00:54:19;97808.00;;;19.60
19666;BMP180;9980;51.020;7.772;2023-07-08T00:59:32;97802.00;;;19.50
19666;BMP180;9980;51.020;7.772;2023-07-08T01:02:06;97801.00;;;19.50
19666;BMP180;9980;51.020;7.772;2023-07-08T01:05:10;97796.00;;;19.40
19666;BMP180;9980;51.020;7.772;2023-07-08T01:07:42;97808.00;;;19.40
19666;BMP180;9980;51.020;7.772;2023-07-08T01:10:17;97806.00;;;19.30
19666;BMP180;9980;51.020;7.772;2023-07-08T01:12:52;97788.00;;;19.30
19666;BMP180;9980;51.020;7.772;2023-07-08T01:15:25;97801.00;;;19.30
19666;BMP180;9980;51.020;7.772;2023-07-08T01:17:54;97790.00;;;19.20
19666;BMP180;9980;51.020;7.772;2023-07-08T01:20:22;97785.00;;;19.20
19666;BMP180;9980;51.020;7.772;2023-07-08T01:22:49;97776.00;;;19.20
19666;BMP180;9980;51.020;7.772;2023-07-08T01:25:17;97779.00;;;19.20
19666;BMP180;9980;51.020;7.772;2023-07-08T01:27:53;97789.00;;;19.10
19666;BMP180;9980;51.020;7.772;2023-07-08T01:30:21;97777.00;;;19.10
19666;BMP180;9980;51.020;7.772;2023-07-08T01:32:55;97777.00;;;19.00
19666;BMP180;9980;51.020;7.772;2023-07-08T01:35:22;97781.00;;;19.00
19666;BMP180;9980;51.020;7.772;2023-07-08T01:37:57;97774.00;;;19.00
19666;BMP180;9980;51.020;7.772;2023-07-08T01:40:35;97789.00;;;18.90
19666;BMP180;9980;51.020;7.772;2023-07-08T01:43:05;97765.00;;;18.90
19666;BMP180;9980;51.020;7.772;2023-07-08T01:45:40;97756.00;;;18.80
19666;BMP180;9980;51.020;7.772;2023-07-08T01:48:19;97774.00;;;18.80
19666;BMP180;9980;51.020;7.772;2023-07-08T01:51:07;97762.00;;;18.80
19666;BMP180;9980;51.020;7.772;2023-07-08T01:53:40;97774.00;;;18.80
19666;BMP180;9980;51.020;7.772;2023-07-08T01:56:09;97762.00;;;18.70
19666;BMP180;9980;51.020;7.772;2023-07-08T01:58:36;97754.00;;;18.70
19666;BMP180;9980;51.020;7.772;2023-07-08T02:01:04;97757.00;;;18.70
19666;BMP180;9980;51.020;7.772;2023-07-08T02:03:31;97756.00;;;18.70
19666;BMP180;9980;51.020;7.772;2023-07-08T02:05:58;97739.00;;;18.60
19666;BMP180;9980;51.020;7.772;2023-07-08T02:08:26;97740.00;;;18.60
19666;BMP180;9980;51.020;7.772;2023-07-08T02:10:56;97751.00;;;18.60
19666;BMP180;9980;51.020;7.772;2023-07-08T02:13:25;97768.00;;;18.60
19666;BMP180;9980;51.020;7.772;2023-07-08T02:15:52;97746.00;;;18.50
19666;BMP180;9980;51.020;7.772;2023-07-08T02:18:19;97741.00;;;18.50
19666;BMP180;9980;51.020;7.772;2023-07-08T02:20:47;97744.00;;;18.50
19666;BMP180;9980;51.020;7.772;2023-07-08T02:23:15;97743.00;;;18.50
19666;BMP180;9980;51.020;7.772;2023-07-08T02:25:50;97741.00;;;18.40
19666;BMP180;9980;51.020;7.772;2023-07-08T02:28:16;97741.00;;;18.40
19666;BMP180;9980;51.020;7.772;2023-07-08T02:30:44;97743.00;;;18.40
19666;BMP180;9980;51.020;7.772;2023-07-08T02:33:14;97745.00;;;18.40
19666;BMP180;9980;51.020;7.772;2023-07-08T02:35:43;97737.00;;;18.40
19666;BMP180;9980;51.020;7.772;2023-07-08T02:38:11;97726.00;;;18.30
19666;BMP180;9980;51.020;7.772;2023-07-08T02:40:40;97735.00;;;18.30
19666;BMP180;9980;51.020;7.772;2023-07-08T02:43:07;97731.00;;;18.30
19666;BMP180;9980;51.020;7.772;2023-07-08T02:45:33;97729.00;;;18.30
19666;BMP180;9980;51.020;7.772;2023-07-08T02:48:00;97737.00;;;18.30
19666;BMP180;9980;51.020;7.772;2023-07-08T02:50:27;97737.00;;;18.20
19666;BMP180;9980;51.020;7.772;2023-07-08T02:52:55;97733.00;;;18.20
19666;BMP180;9980;51.020;7.772;2023-07-08T02:55:21;97739.00;;;18.20
19666;BMP180;9980;51.020;7.772;2023-07-08T02:57:49;97748.00;;;18.20
19666;BMP180;9980;51.020;7.772;2023-07-08T03:00:16;97735.00;;;18.20
19666;BMP180;9980;51.020;7.772;2023-07-08T03:02:43;97735.00;;;18.10
19666;BMP180;9980;51.020;7.772;2023-07-08T03:05:10;97748.00;;;18.10
19666;BMP180;9980;51.020;7.772;2023-07-08T03:07:37;97738.00;;;18.10
19666;BMP180;9980;51.020;7.772;2023-07-08T03:10:04;97746.00;;;18.10
19666;BMP180;9980;51.020;7.772;2023-07-08T03:12:31;97743.00;;;18.00
19666;BMP180;9980;51.020;7.772;2023-07-08T03:15:00;97731.00;;;18.00
19666;BMP180;9980;51.020;7.772;2023-07-08T03:17:27;97730.00;;;18.00
19666;BMP180;9980;51.020;7.772;2023-07-08T03:19:54;97740.00;;;18.00
19666;BMP180;9980;51.020;7.772;2023-07-08T03:22:20;97747.00;;;18.00
19666;BMP180;9980;51.020;7.772;2023-07-08T03:24:48;97746.00;;;17.90
19666;BMP180;9980;51.020;7.772;2023-07-08T03:27:18;97734.00;;;17.90
19666;BMP180;9980;51.020;7.772;2023-07-08T03:29:48;97746.00;;;17.90
19666;BMP180;9980;51.020;7.772;2023-07-08T03:32:16;97742.00;;;17.90
19666;BMP180;9980;51.020;7.772;2023-07-08T03:34:42;97751.00;;;17.80
19666;BMP180;9980;51.020;7.772;2023-07-08T03:37:10;97760.00;;;17.80
19666;BMP180;9980;51.020;7.772;2023-07-08T03:39:38;97753.00;;;17.80
19666;BMP180;9980;51.020;7.772;2023-07-08T03:42:05;97756.00;;;17.80
19666;BMP180;9980;51.020;7.772;2023-07-08T03:44:32;97765.00;;;17.80
19666;BMP180;9980;51.020;7.772;2023-07-08T03:46:59;97750.00;;;17.80
19666;BMP180;9980;51.020;7.772;2023-07-08T03:49:26;97760.00;;;17.70
19666;BMP180;9980;51.020;7.772;2023-07-08T03:51:55;97762.00;;;17.70
19666;BMP180;9980;51.020;7.772;2023-07-08T03:54:24;97778.00;;;17.70
19666;BMP180;9980;51.020;7.772;2023-07-08T03:56:55;97777.00;;;17.70
19666;BMP180;9980;51.020;7.772;2023-07-08T03:59:24;97775.00;;;17.70
19666;BMP180;9980;51.020;7.772;2023-07-08T04:01:53;97757.00;;;17.70
19666;BMP180;9980;51.020;7.772;2023-07-08T04:04:20;97773.00;;;17.70
19666;BMP180;9980;51.020;7.772;2023-07-08T04:06:48;97778.00;;;17.70
19666;BMP180;9980;51.020;7.772;2023-07-08T04:09:17;97767.00;;;17.70
19666;BMP180;9980;51.020;7.772;2023-07-08T04:11:44;97778.00;;;17.70
19666;BMP180;9980;51.020;7.772;2023-07-08T04:14:10;97787.00;;;17.70
19666;BMP180;9980;51.020;7.772;2023-07-08T04:16:53;97779.00;;;17.60
19666;BMP180;9980;51.020;7.772;2023-07-08T04:19:21;97775.00;;;17.70
19666;BMP180;9980;51.020;7.772;2023-07-08T04:21:50;97761.00;;;17.70
19666;BMP180;9980;51.020;7.772;2023-07-08T04:24:18;97775.00;;;17.70
19666;BMP180;9980;51.020;7.772;2023-07-08T04:26:47;97767.00;;;17.70
19666;BMP180;9980;51.020;7.772;2023-07-08T04:29:19;97773.00;;;17.70
19666;BMP180;9980;51.020;7.772;2023-07-08T04:31:47;97766.00;;;17.70
19666;BMP180;9980;51.020;7.772;2023-07-08T04:34:16;97782.00;;;17.70
19666;BMP180;9980;51.020;7.772;2023-07-08T04:36:44;97785.00;;;17.70
19666;BMP180;9980;51.020;7.772;2023-07-08T04:39:11;97786.00;;;17.70
19666;BMP180;9980;51.020;7.772;2023-07-08T04:41:40;97776.00;;;17.70
19666;BMP180;9980;51.020;7.772;2023-07-08T04:44:12;97781.00;;;17.70
19666;BMP180;9980;51.020;7.772;2023-07-08T04:46:56;97789.00;;;17.70
19666;BMP180;9980;51.020;7.772;2023-07-08T04:49:24;97777.00;;;17.70
19666;BMP180;9980;51.020;7.772;2023-07-08T04:51:51;97780.00;;;17.80
19666;BMP180;9980;51.020;7.772;2023-07-08T04:54:19;97778.00;;;17.80
19666;BMP180;9980;51.020;7.772;2023-07-08T04:56:48;97767.00;;;17.80
19666;BMP180;9980;51.020;7.772;2023-07-08T04:59:23;97777.00;;;17.90
19666;BMP180;9980;51.020;7.772;2023-07-08T05:01:51;97766.00;;;17.90
19666;BMP180;9980;51.020;7.772;2023-07-08T05:04:21;97761.00;;;17.90
19666;BMP180;9980;51.020;7.772;2023-07-08T05:06:49;97760.00;;;18.00
19666;BMP180;9980;51.020;7.772;2023-07-08T05:09:16;97769.00;;;18.10
19666;BMP180;9980;51.020;7.772;2023-07-08T05:11:44;97762.00;;;18.10
19666;BMP180;9980;51.020;7.772;2023-07-08T05:14:12;97773.00;;;18.20
19666;BMP180;9980;51.020;7.772;2023-07-08T05:16:40;97775.00;;;18.30
19666;BMP180;9980;51.020;7.772;2023-07-08T05:19:10;97768.00;;;18.40
19666;BMP180;9980;51.020;7.772;2023-07-08T05:21:37;97768.00;;;18.50
19666;BMP180;9980;51.020;7.772;2023-07-08T05:24:06;97773.00;;;18.70
19666;BMP180;9980;51.020;7.772;2023-07-08T05:26:33;97767.00;;;18.80
19666;BMP180;9980;51.020;7.772;2023-07-08T05:29:00;97771.00;;;19.00
19666;BMP180;9980;51.020;7.772;2023-07-08T05:31:28;97772.00;;;19.10
19666;BMP180;9980;51.020;7.772;2023-07-08T05:34:11;97780.00;;;19.30
19666;BMP180;9980;51.020;7.772;2023-07-08T05:36:38;97771.00;;;19.40
19666;BMP180;9980;51.020;7.772;2023-07-08T05:39:05;97752.00;;;19.60
19666;BMP180;9980;51.020;7.772;2023-07-08T05:41:32;97754.00;;;19.70
19666;BMP180;9980;51.020;7.772;2023-07-08T05:43:59;97759.00;;;19.80
19666;BMP180;9980;51.020;7.772;2023-07-08T05:46:26;97767.00;;;19.90
19666;BMP180;9980;51.020;7.772;2023-07-08T05:48:53;97746.00;;;20.00
19666;BMP180;9980;51.020;7.772;2023-07-08T05:51:21;97748.00;;;20.10
19666;BMP180;9980;51.020;7.772;2023-07-08T05:53:48;97748.00;;;20.20
19666;BMP180;9980;51.020;7.772;2023-07-08T05:56:14;97737.00;;;20.30
19666;BMP180;9980;51.020;7.772;2023-07-08T05:58:41;97743.00;;;20.30
19666;BMP180;9980;51.020;7.772;2023-07-08T06:01:08;97745.00;;;20.40
19666;BMP180;9980;51.020;7.772;2023-07-08T06:03:37;97752.00;;;20.50
19666;BMP180;9980;51.020;7.772;2023-07-08T06:06:04;97759.00;;;20.60
19666;BMP180;9980;51.020;7.772;2023-07-08T06:08:35;97758.00;;;20.70
19666;BMP180;9980;51.020;7.772;2023-07-08T06:11:02;97744.00;;;20.80
19666;BMP180;9980;51.020;7.772;2023-07-08T06:13:29;97760.00;;;20.90
19666;BMP180;9980;51.020;7.772;2023-07-08T06:15:56;97759.00;;;21.00
19666;BMP180;9980;51.020;7.772;2023-07-08T06:18:24;97748.00;;;21.10
19666;BMP180;9980;51.020;7.772;2023-07-08T06:20:53;97748.00;;;21.20
19666;BMP180;9980;51.020;7.772;2023-07-08T06:23:22;97755.00;;;21.30
19666;BMP180;9980;51.020;7.772;2023-07-08T06:25:50;97753.00;;;21.40
19666;BMP180;9980;51.020;7.772;2023-07-08T06:28:17;97745.00;;;21.50
19666;BMP180;9980;51.020;7.772;2023-07-08T06:30:44;97754.00;;;21.70
19666;BMP180;9980;51.020;7.772;2023-07-08T06:33:12;97751.00;;;21.80
19666;BMP180;9980;51.020;7.772;2023-07-08T06:35:40;97755.00;;;22.00
19666;BMP180;9980;51.020;7.772;2023-07-08T06:38:07;97742.00;;;22.10
19666;BMP180;9980;51.020;7.772;2023-07-08T06:40:35;97741.00;;;22.20
19666;BMP180;9980;51.020;7.772;2023-07-08T06:43:03;97739.00;;;22.30
19666;BMP180;9980;51.020;7.772;2023-07-08T06:45:50;97751.00;;;22.50
19666;BMP180;9980;51.020;7.772;2023-07-08T06:48:17;97749.00;;;22.70
19666;BMP180;9980;51.020;7.772;2023-07-08T06:50:48;97749.00;;;22.80
19666;BMP180;9980;51.020;7.772;2023-07-08T06:53:15;97756.00;;;23.00
19666;BMP180;9980;51.020;7.772;2023-07-08T06:55:46;97744.00;;;23.10
19666;BMP180;9980;51.020;7.772;2023-07-08T06:58:13;97738.00;;;23.30
19666;BMP180;9980;51.020;7.772;2023-07-08T07:00:44;97753.00;;;23.50
19666;BMP180;9980;51.020;7.772;2023-07-08T07:03:12;97750.00;;;23.60
19666;BMP180;9980;51.020;7.772;2023-07-08T07:05:40;97772.00;;;23.80
19666;BMP180;9980;51.020;7.772;2023-07-08T07:08:07;97754.00;;;23.90
19666;BMP180;9980;51.020;7.772;2023-07-08T07:10:34;97760.00;;;24.00
19666;BMP180;9980;51.020;7.772;2023-07-08T07:13:03;97765.00;;;24.20
19666;BMP180;9980;51.020;7.772;2023-07-08T07:15:30;97761.00;;;24.30
19666;BMP180;9980;51.020;7.772;2023-07-08T07:17:58;97752.00;;;24.40
19666;BMP180;9980;51.020;7.772;2023-07-08T07:20:26;97750.00;;;24.60
19666;BMP180;9980;51.020;7.772;2023-07-08T07:22:54;97772.00;;;24.70
19666;BMP180;9980;51.020;7.772;2023-07-08T07:25:21;97760.00;;;24.90
19666;BMP180;9980;51.020;7.772;2023-07-08T07:27:48;97775.00;;;25.00
19666;BMP180;9980;51.020;7.772;2023-07-08T07:30:15;97755.00;;;25.20
19666;BMP180;9980;51.020;7.772;2023-07-08T07:32:43;97758.00;;;25.40
19666;BMP180;9980;51.020;7.772;2023-07-08T07:35:11;97757.00;;;25.60
19666;BMP180;9980;51.020;7.772;2023-07-08T07:37:41;97767.00;;;25.80
19666;BMP180;9980;51.020;7.772;2023-07-08T07:40:10;97758.00;;;25.90
19666;BMP180;9980;51.020;7.772;2023-07-08T07:42:41;97759.00;;;26.10
19666;BMP180;9980;51.020;7.772;2023-07-08T07:45:09;97777.00;;;26.30
19666;BMP180;9980;51.020;7.772;2023-07-08T07:47:36;97770.00;;;26.40
19666;BMP180;9980;51.020;7.772;2023-07-08T07:50:05;97772.00;;;26.60
19666;BMP180;9980;51.020;7.772;2023-07-08T07:52:33;97765.00;;;26.70
19666;BMP180;9980;51.020;7.772;2023-07-08T07:55:01;97755.00;;;26.90
19666;BMP180;9980;51.020;7.772;2023-07-08T07:57:28;97757.00;;;27.10
19666;BMP180;9980;51.020;7.772;2023-07-08T07:59:55;97759.00;;;27.20
19666;BMP180;9980;51.020;7.772;2023-07-08T08:02:22;97771.00;;;27.40
19666;BMP180;9980;51.020;7.772;2023-07-08T08:04:49;97760.00;;;27.50
19666;BMP180;9980;51.020;7.772;2023-07-08T08:07:16;97769.00;;;27.70
19666;BMP180;9980;51.020;7.772;2023-07-08T08:09:44;97760.00;;;27.90
19666;BMP180;9980;51.020;7.772;2023-07-08T08:12:11;97760.00;;;28.00
19666;BMP180;9980;51.020;7.772;2023-07-08T08:14:39;97767.00;;;28.20
19666;BMP180;9980;51.020;7.772;2023-07-08T08:17:06;97752.00;;;28.30
19666;BMP180;9980;51.020;7.772;2023-07-08T08:19:33;97774.00;;;28.40
19666;BMP180;9980;51.020;7.772;2023-07-08T08:22:00;97768.00;;;28.60
19666;BMP180;9980;51.020;7.772;2023-07-08T08:24:27;97783.00;;;28.70
19666;BMP180;9980;51.020;7.772;2023-07-08T08:26:54;97786.00;;;28.90
19666;BMP180;9980;51.020;7.772;2023-07-08T08:29:21;97772.00;;;29.00
19666;BMP180;9980;51.020;7.772;2023-07-08T08:31:48;97767.00;;;29.20
19666;BMP180;9980;51.020;7.772;2023-07-08T08:34:17;97782.00;;;29.30
19666;BMP180;9980;51.020;7.772;2023-07-08T08:36:44;97776.00;;;29.40
19666;BMP180;9980;51.020;7.772;2023-07-08T08:39:11;97789.00;;;29.60
19666;BMP180;9980;51.020;7.772;2023-07-08T08:41:41;97785.00;;;29.70
19666;BMP180;9980;51.020;7.772;2023-07-08T08:44:31;97772.00;;;29.80
19666;BMP180;9980;51.020;7.772;2023-07-08T08:47:35;97769.00;;;29.90
19666;BMP180;9980;51.020;7.772;2023-07-08T08:50:40;97772.00;;;30.00
19666;BMP180;9980;51.020;7.772;2023-07-08T08:53:15;97768.00;;;30.10
19666;BMP180;9980;51.020;7.772;2023-07-08T08:55:50;97780.00;;;30.20
19666;BMP180;9980;51.020;7.772;2023-07-08T08:58:37;97774.00;;;30.20
19666;BMP180;9980;51.020;7.772;2023-07-08T09:01:13;97774.00;;;30.40
19666;BMP180;9980;51.020;7.772;2023-07-08T09:03:51;97789.00;;;30.50
19666;BMP180;9980;51.020;7.772;2023-07-08T09:06:27;97790.00;;;30.60
19666;BMP180;9980;51.020;7.772;2023-07-08T09:09:02;97788.00;;;30.60
19666;BMP180;9980;51.020;7.772;2023-07-08T09:14:27;97789.00;;;30.60
19666;BMP180;9980;51.020;7.772;2023-07-08T09:17:07;97784.00;;;30.70
19666;BMP180;9980;51.020;7.772;2023-07-08T09:22:46;97781.00;;;30.80
19666;BMP180;9980;51.020;7.772;2023-07-08T09:25:37;97783.00;;;30.90
19666;BMP180;9980;51.020;7.772;2023-07-08T09:28:08;97776.00;;;30.90
19666;BMP180;9980;51.020;7.772;2023-07-08T09:30:35;97786.00;;;31.00
19666;BMP180;9980;51.020;7.772;2023-07-08T09:33:04;97794.00;;;31.10
19666;BMP180;9980;51.020;7.772;2023-07-08T09:35:42;97776.00;;;31.10
19666;BMP180;9980;51.020;7.772;2023-07-08T09:38:22;97775.00;;;31.20
19666;BMP180;9980;51.020;7.772;2023-07-08T09:40:53;97788.00;;;31.30
19666;BMP180;9980;51.020;7.772;2023-07-08T09:43:38;97783.00;;;31.40
19666;BMP180;9980;51.020;7.772;2023-07-08T09:46:11;97781.00;;;31.50
19666;BMP180;9980;51.020;7.772;2023-07-08T09:48:39;97768.00;;;31.60
19666;BMP180;9980;51.020;7.772;2023-07-08T09:51:06;97778.00;;;31.70
19666;BMP180;9980;51.020;7.772;2023-07-08T09:53:35;97770.00;;;31.90
19666;BMP180;9980;51.020;7.772;2023-07-08T09:56:04;97776.00;;;32.00
19666;BMP180;9980;51.020;7.772;2023-07-08T09:58:40;97761.00;;;32.00
19666;BMP180;9980;51.020;7.772;2023-07-08T10:01:22;97773.00;;;32.20
19666;BMP180;9980;51.020;7.772;2023-07-08T10:03:50;97782.00;;;32.40
19666;BMP180;9980;51.020;7.772;2023-07-08T10:06:28;97784.00;;;32.40
19666;BMP180;9980;51.020;7.772;2023-07-08T10:09:19;97784.00;;;32.50
19666;BMP180;9980;51.020;7.772;2023-07-08T10:11:54;97787.00;;;32.70
19666;BMP180;9980;51.020;7.772;2023-07-08T10:14:56;97788.00;;;32.80
19666;BMP180;9980;51.020;7.772;2023-07-08T10:17:25;97770.00;;;33.00
19666;BMP180;9980;51.020;7.772;2023-07-08T10:19:52;97782.00;;;33.10
19666;BMP180;9980;51.020;7.772;2023-07-08T10:22:47;97758.00;;;33.20
19666;BMP180;9980;51.020;7.772;2023-07-08T10:25:44;97761.00;;;33.20
19666;BMP180;9980;51.020;7.772;2023-07-08T10:28:45;97769.00;;;33.30
19666;BMP180;9980;51.020;7.772;2023-07-08T10:31:32;97766.00;;;33.50
19666;BMP180;9980;51.020;7.772;2023-07-08T10:34:36;97757.00;;;33.60
19666;BMP180;9980;51.020;7.772;2023-07-08T10:37:33;97745.00;;;33.70
19666;BMP180;9980;51.020;7.772;2023-07-08T10:45:53;97742.00;;;34.00
19666;BMP180;9980;51.020;7.772;2023-07-08T10:52:12;97752.00;;;34.20
19666;BMP180;9980;51.020;7.772;2023-07-08T10:55:15;97758.00;;;34.30
19666;BMP180;9980;51.020;7.772;2023-07-08T10:58:13;97749.00;;;34.40
19666;BMP180;9980;51.020;7.772;2023-07-08T11:03:56;97743.00;;;34.50
19666;BMP180;9980;51.020;7.772;2023-07-08T11:06:48;97736.00;;;34.60
19666;BMP180;9980;51.020;7.772;2023-07-08T11:09:36;97754.00;;;34.70
19666;BMP180;9980;51.020;7.772;2023-07-08T11:12:20;97740.00;;;34.80
19666;BMP180;9980;51.020;7.772;2023-07-08T11:15:00;97729.00;;;35.00
19666;BMP180;9980;51.020;7.772;2023-07-08T11:17:51;97732.00;;;35.00
19666;BMP180;9980;51.020;7.772;2023-07-08T11:20:31;97728.00;;;35.20
19666;BMP180;9980;51.020;7.772;2023-07-08T11:26:34;97731.00;;;35.30
19666;BMP180;9980;51.020;7.772;2023-07-08T11:29:21;97727.00;;;35.40
19666;BMP180;9980;51.020;7.772;2023-07-08T11:31:51;97726.00;;;35.50
19666;BMP180;9980;51.020;7.772;2023-07-08T11:34:20;97727.00;;;35.50
19666;BMP180;9980;51.020;7.772;2023-07-08T11:36:50;97724.00;;;35.50
19666;BMP180;9980;51.020;7.772;2023-07-08T11:39:45;97727.00;;;35.50
19666;BMP180;9980;51.020;7.772;2023-07-08T11:44:59;97721.00;;;35.70
19666;BMP180;9980;51.020;7.772;2023-07-08T11:47:35;97725.00;;;35.70
19666;BMP180;9980;51.020;7.772;2023-07-08T11:50:23;97715.00;;;35.80
19666;BMP180;9980;51.020;7.772;2023-07-08T11:53:10;97706.00;;;35.80
19666;BMP180;9980;51.020;7.772;2023-07-08T11:55:58;97723.00;;;35.90
19666;BMP180;9980;51.020;7.772;2023-07-08T11:58:32;97719.00;;;35.90
19666;BMP180;9980;51.020;7.772;2023-07-08T12:03:54;97715.00;;;36.00
19666;BMP180;9980;51.020;7.772;2023-07-08T12:08:58;97717.00;;;36.10
19666;BMP180;9980;51.020;7.772;2023-07-08T12:11:44;97714.00;;;36.20
19666;BMP180;9980;51.020;7.772;2023-07-08T12:14:12;97713.00;;;36.20
19666;BMP180;9980;51.020;7.772;2023-07-08T12:16:41;97709.00;;;36.30
19666;BMP180;9980;51.020;7.772;2023-07-08T12:19:16;97711.00;;;36.30
19666;BMP180;9980;51.020;7.772;2023-07-08T12:21:44;97713.00;;;36.40
19666;BMP180;9980;51.020;7.772;2023-07-08T12:24:14;97712.00;;;36.40
19666;BMP180;9980;51.020;7.772;2023-07-08T12:26:41;97710.00;;;36.50
19666;BMP180;9980;51.020;7.772;2023-07-08T12:29:12;97705.00;;;36.50
19666;BMP180;9980;51.020;7.772;2023-07-08T12:31:42;97711.00;;;36.50
19666;BMP180;9980;51.020;7.772;2023-07-08T12:34:15;97716.00;;;36.60
19666;BMP180;9980;51.020;7.772;2023-07-08T12:36:45;97726.00;;;36.60
19666;BMP180;9980;51.020;7.772;2023-07-08T12:39:16;97712.00;;;36.70
19666;BMP180;9980;51.020;7.772;2023-07-08T12:41:46;97704.00;;;36.70
19666;BMP180;9980;51.020;7.772;2023-07-08T12:44:23;97710.00;;;36.80
19666;BMP180;9980;51.020;7.772;2023-07-08T12:46:54;97708.00;;;36.90
19666;BMP180;9980;51.020;7.772;2023-07-08T12:49:22;97707.00;;;36.90
19666;BMP180;9980;51.020;7.772;2023-07-08T12:51:53;97707.00;;;37.00
19666;BMP180;9980;51.020;7.772;2023-07-08T12:54:20;97710.00;;;37.00
19666;BMP180;9980;51.020;7.772;2023-07-08T12:56:49;97704.00;;;37.00
19666;BMP180;9980;51.020;7.772;2023-07-08T12:59:21;97715.00;;;37.00
19666;BMP180;9980;51.020;7.772;2023-07-08T13:01:50;97712.00;;;37.10
19666;BMP180;9980;51.020;7.772;2023-07-08T13:04:19;97708.00;;;37.10
19666;BMP180;9980;51.020;7.772;2023-07-08T13:06:48;97711.00;;;37.20
19666;BMP180;9980;51.020;7.772;2023-07-08T13:09:39;97717.00;;;37.20
19666;BMP180;9980;51.020;7.772;2023-07-08T13:12:18;97713.00;;;37.20
19666;BMP180;9980;51.020;7.772;2023-07-08T13:14:53;97713.00;;;37.30
19666;BMP180;9980;51.020;7.772;2023-07-08T13:17:21;97715.00;;;37.30
19666;BMP180;9980;51.020;7.772;2023-07-08T13:19:48;97722.00;;;37.30
19666;BMP180;9980;51.020;7.772;2023-07-08T13:22:21;97704.00;;;37.20
19666;BMP180;9980;51.020;7.772;2023-07-08T13:24:58;97713.00;;;37.20
19666;BMP180;9980;51.020;7.772;2023-07-08T13:27:26;97710.00;;;37.30
19666;BMP180;9980;51.020;7.772;2023-07-08T13:30:06;97728.00;;;37.30
19666;BMP180;9980;51.020;7.772;2023-07-08T13:32:37;97717.00;;;37.30
19666;BMP180;9980;51.020;7.772;2023-07-08T13:35:05;97733.00;;;37.30
19666;BMP180;9980;51.020;7.772;2023-07-08T13:37:46;97719.00;;;37.30
19666;BMP180;9980;51.020;7.772;2023-07-08T13:40:15;97711.00;;;37.40
19666;BMP180;9980;51.020;7.772;2023-07-08T13:42:52;97713.00;;;37.30
19666;BMP180;9980;51.020;7.772;2023-07-08T13:45:30;97716.00;;;37.40
19666;BMP180;9980;51.020;7.772;2023-07-08T13:48:13;97715.00;;;37.40
19666;BMP180;9980;51.020;7.772;2023-07-08T13:50:49;97708.00;;;37.40
19666;BMP180;9980;51.020;7.772;2023-07-08T13:56:20;97716.00;;;37.30
19666;BMP180;9980;51.020;7.772;2023-07-08T13:59:00;97711.00;;;37.30
19666;BMP180;9980;51.020;7.772;2023-07-08T14:01:31;97720.00;;;37.30
19666;BMP180;9980;51.020;7.772;2023-07-08T14:03:59;97720.00;;;37.30
19666;BMP180;9980;51.020;7.772;2023-07-08T14:06:36;97723.00;;;37.30
19666;BMP180;9980;51.020;7.772;2023-07-08T14:09:23;97728.00;;;37.20
19666;BMP180;9980;51.020;7.772;2023-07-08T14:11:52;97728.00;;;37.30
19666;BMP180;9980;51.020;7.772;2023-07-08T14:14:19;97721.00;;;37.30
19666;BMP180;9980;51.020;7.772;2023-07-08T14:16:50;97725.00;;;37.30
19666;BMP180;9980;51.020;7.772;2023-07-08T14:19:26;97721.00;;;37.20
19666;BMP180;9980;51.020;7.772;2023-07-08T14:21:58;97718.00;;;37.30
19666;BMP180;9980;51.020;7.772;2023-07-08T14:24:25;97730.00;;;37.40
19666;BMP180;9980;51.020;7.772;2023-07-08T14:26:53;97724.00;;;37.40
19666;BMP180;9980;51.020;7.772;2023-07-08T14:29:20;97720.00;;;37.40
19666;BMP180;9980;51.020;7.772;2023-07-08T14:31:49;97713.00;;;37.50
19666;BMP180;9980;51.020;7.772;2023-07-08T14:34:25;97721.00;;;37.40
19666;BMP180;9980;51.020;7.772;2023-07-08T14:36:53;97716.00;;;37.50
19666;BMP180;9980;51.020;7.772;2023-07-08T14:39:20;97716.00;;;37.60
19666;BMP180;9980;51.020;7.772;2023-07-08T14:41:50;97712.00;;;37.60
19666;BMP180;9980;51.020;7.772;2023-07-08T14:44:25;97703.00;;;37.50
19666;BMP180;9980;51.020;7.772;2023-07-08T14:46:53;97709.00;;;37.60
19666;BMP180;9980;51.020;7.772;2023-07-08T14:49:26;97693.00;;;37.60
19666;BMP180;9980;51.020;7.772;2023-07-08T14:51:54;97703.00;;;37.60
19666;BMP180;9980;51.020;7.772;2023-07-08T14:54:21;97704.00;;;37.70
19666;BMP180;9980;51.020;7.772;2023-07-08T14:56:49;97714.00;;;37.70
19666;BMP180;9980;51.020;7.772;2023-07-08T14:59:23;97715.00;;;37.60
19666;BMP180;9980;51.020;7.772;2023-07-08T15:01:54;97702.00;;;37.60
19666;BMP180;9980;51.020;7.772;2023-07-08T15:04:22;97712.00;;;37.60
19666;BMP180;9980;51.020;7.772;2023-07-08T15:06:49;97707.00;;;37.60
19666;BMP180;9980;51.020;7.772;2023-07-08T15:09:17;97717.00;;;37.50
19666;BMP180;9980;51.020;7.772;2023-07-08T15:11:45;97715.00;;;37.50
19666;BMP180;9980;51.020;7.772;2023-07-08T15:14:20;97717.00;;;37.40
19666;BMP180;9980;51.020;7.772;2023-07-08T15:16:49;97712.00;;;37.40
19666;BMP180;9980;51.020;7.772;2023-07-08T15:19:18;97717.00;;;37.30
19666;BMP180;9980;51.020;7.772;2023-07-08T15:21:46;97715.00;;;37.30
19666;BMP180;9980;51.020;7.772;2023-07-08T15:24:15;97708.00;;;37.20
19666;BMP180;9980;51.020;7.772;2023-07-08T15:26:48;97715.00;;;37.20